createdAt,value
2024-03-05T00:00:29.162Z,37.839999999999996
2024-03-05T00:03:24.685Z,42.08
2024-03-05T00:06:20.305Z,34.339999999999996
2024-03-05T00:09:15.810Z,32
2024-03-05T00:12:12.368Z,29.799999999999994
2024-03-05T00:15:08.932Z,28.339999999999996
2024-03-05T00:18:05.612Z,31.320000000000004
2024-03-05T00:21:01.067Z,28.2
2024-03-05T00:23:56.610Z,22.28
2024-03-05T00:26:54.149Z,23.9
2024-03-05T00:29:49.710Z,22.660000000000004
2024-03-05T00:32:45.308Z,25.48
2024-03-05T00:35:42.849Z,24.48
2024-03-05T00:38:39.379Z,21.240000000000002
2024-03-05T00:41:34.978Z,21.3
2024-03-05T00:44:31.557Z,25.940000000000005
2024-03-05T00:47:27.074Z,26.879999999999995
2024-03-05T00:50:23.654Z,24.619999999999997
2024-03-05T00:53:19.203Z,31.619999999999997
2024-03-05T00:56:14.767Z,31.96
2024-03-05T00:59:12.342Z,37.239999999999995
2024-03-05T01:02:07.954Z,30.080000000000002
2024-03-05T01:05:07.459Z,29.68
2024-03-05T01:08:04.055Z,29.839999999999996
2024-03-05T01:11:00.968Z,30.880000000000003
2024-03-05T01:13:56.222Z,38.220000000000006
2024-03-05T01:16:52.770Z,36.04
2024-03-05T01:19:48.275Z,28.639999999999997
2024-03-05T01:22:43.877Z,30.439999999999998
2024-03-05T01:25:42.409Z,28.839999999999996
2024-03-05T01:28:39.959Z,29.2
2024-03-05T01:31:35.513Z,25.119999999999997
2024-03-05T01:37:37.567Z,26.580000000000002
2024-03-05T01:40:33.088Z,29.32
2024-03-05T01:43:31.705Z,28.3
2024-03-05T01:46:29.273Z,24.939999999999998
2024-03-05T01:49:25.875Z,25.200000000000003
2024-03-05T01:52:23.384Z,24.3
2024-03-05T01:55:19.910Z,25.12
2024-03-05T01:58:18.515Z,23.339999999999996
2024-03-05T02:01:16.147Z,22.020000000000003
2024-03-05T02:04:15.583Z,26.04
2024-03-05T02:07:14.231Z,23.020000000000003
2024-03-05T02:10:10.666Z,22.66
2024-03-05T02:13:10.250Z,25.54
2024-03-05T02:16:06.809Z,28.32
2024-03-05T02:19:04.365Z,31.060000000000002
2024-03-05T02:22:02.950Z,24.54
2024-03-05T02:24:59.463Z,24.139999999999997
2024-03-05T02:27:56.035Z,28.580000000000002
2024-03-05T02:30:52.564Z,28.880000000000003
2024-03-05T02:33:49.106Z,32.540000000000006
2024-03-05T02:36:44.685Z,28.320000000000004
2024-03-05T02:39:40.259Z,33.220000000000006
2024-03-05T02:42:36.793Z,27.479999999999997
2024-03-05T02:45:32.382Z,22.16
2024-03-05T02:48:28.025Z,26.28
2024-03-05T02:51:24.564Z,26.5
2024-03-05T02:54:20.055Z,20.060000000000002
2024-03-05T02:57:15.605Z,20.860000000000003
2024-03-05T03:00:20.647Z,22.580000000000002
2024-03-05T03:03:17.720Z,23.919999999999998
2024-03-05T03:06:16.292Z,18.559999999999995
2024-03-05T03:09:12.807Z,19.48
2024-03-05T03:12:14.420Z,19.04
2024-03-05T03:15:10.958Z,20.919999999999998
2024-03-05T03:18:07.600Z,20.779999999999998
2024-03-05T03:21:06.047Z,21.4
2024-03-05T03:24:01.599Z,20.28
2024-03-05T03:26:58.157Z,20.9
2024-03-05T03:29:53.815Z,20.619999999999997
2024-03-05T03:32:50.336Z,20.919999999999998
2024-03-05T03:35:46.840Z,20.68
2024-03-05T03:38:43.403Z,18.639999999999997
2024-03-05T03:41:40.951Z,21.04
2024-03-05T03:44:36.526Z,17.54
2024-03-05T03:47:32.086Z,16.139999999999997
2024-03-05T03:50:27.622Z,20.759999999999998
2024-03-05T03:53:23.209Z,17.18
2024-03-05T03:56:18.760Z,19.02
2024-03-05T03:59:15.331Z,19.16
2024-03-05T04:02:10.960Z,16.78
2024-03-05T04:05:10.410Z,22.380000000000003
2024-03-05T04:08:07.054Z,20.12
2024-03-05T04:11:04.624Z,18.660000000000004
2024-03-05T04:14:04.324Z,17.82
2024-03-05T04:17:01.667Z,22.619999999999997
2024-03-05T04:19:57.559Z,23
2024-03-05T04:22:54.841Z,21.68
2024-03-05T04:25:59.440Z,22.9
2024-03-05T04:29:02.032Z,17.52
2024-03-05T04:35:11.962Z,21.86
2024-03-05T04:38:08.480Z,24.46
2024-03-05T04:41:06.126Z,24.02
2024-03-05T04:44:02.639Z,22.78
2024-03-05T04:46:59.179Z,24.339999999999996
2024-03-05T04:49:55.735Z,17.339999999999996
2024-03-05T04:52:53.308Z,18.26
2024-03-05T04:55:49.829Z,21.04
2024-03-05T04:58:46.416Z,23.6
2024-03-05T05:01:41.967Z,24.54
2024-03-05T05:04:38.579Z,22.500000000000004
2024-03-05T05:07:35.126Z,23.18
2024-03-05T05:10:32.638Z,20.98
2024-03-05T05:13:28.259Z,22.56
2024-03-05T05:16:27.878Z,22.299999999999997
2024-03-05T05:19:26.406Z,23.32
2024-03-05T05:22:22.958Z,27.52
2024-03-05T05:25:20.480Z,37.58
2024-03-05T05:28:16.001Z,29.5
2024-03-05T05:31:24.529Z,24.06
2024-03-05T05:34:22.057Z,56.160000000000004
2024-03-05T05:37:18.600Z,30.119999999999997
2024-03-05T05:40:20.354Z,30.380000000000003
2024-03-05T05:43:20.772Z,37.96
2024-03-05T05:46:24.269Z,32.3
2024-03-05T05:49:22.012Z,27.28
2024-03-05T05:52:18.384Z,27.080000000000002
2024-03-05T05:55:17.100Z,34.38
2024-03-05T05:58:14.470Z,29.5
2024-03-05T06:01:15.429Z,44.040000000000006
2024-03-05T06:04:12.627Z,52.18000000000001
2024-03-05T06:07:11.849Z,55
2024-03-05T06:10:08.750Z,60.839999999999996
2024-03-05T06:13:04.238Z,57.44000000000001
2024-03-05T06:16:00.820Z,50.260000000000005
2024-03-05T06:18:57.324Z,46.2
2024-03-05T06:21:54.030Z,43.11999999999999
2024-03-05T06:24:49.509Z,40.82
2024-03-05T06:27:47.111Z,38.88
2024-03-05T06:30:49.606Z,38.019999999999996
2024-03-05T06:33:45.174Z,38.6
2024-03-05T06:36:42.723Z,32.86
2024-03-05T06:39:42.262Z,31.560000000000002
2024-03-05T06:42:41.832Z,32.5
2024-03-05T06:45:43.363Z,32.3
2024-03-05T06:48:47.916Z,27.380000000000003
2024-03-05T06:52:16.406Z,24.919999999999998
2024-03-05T06:55:48.406Z,25.02
2024-03-05T06:58:45.466Z,24.72
2024-03-05T07:01:41.074Z,21.5
2024-03-05T07:04:40.527Z,19.72
2024-03-05T07:07:36.100Z,17.86
2024-03-05T07:10:35.757Z,27
2024-03-05T07:13:32.307Z,20.359999999999996
2024-03-05T07:16:32.743Z,20.580000000000002
2024-03-05T07:19:30.335Z,19.919999999999998
2024-03-05T07:22:28.841Z,21.880000000000003
2024-03-05T07:25:25.454Z,22.28
2024-03-05T07:28:21.954Z,20.339999999999996
2024-03-05T07:31:20.188Z,18.52
2024-03-05T07:34:16.079Z,20.94
2024-03-05T07:37:13.610Z,26.04
2024-03-05T07:40:21.200Z,18.840000000000003
2024-03-05T07:43:20.717Z,15.819999999999999
2024-03-05T07:46:18.370Z,19.06
2024-03-05T07:49:15.057Z,17.66
2024-03-05T07:52:10.394Z,16.86
2024-03-05T07:55:06.920Z,15.62
2024-03-05T07:58:04.506Z,14.76
2024-03-05T08:01:01.111Z,17.24
2024-03-05T08:03:57.629Z,13.059999999999999
2024-03-05T08:06:55.663Z,11.48
2024-03-05T08:09:54.741Z,12.979999999999999
2024-03-05T08:12:55.302Z,13.1
2024-03-05T08:15:50.825Z,18.639999999999997
2024-03-05T08:18:47.379Z,13.8
2024-03-05T08:21:43.958Z,18.26
2024-03-05T08:24:43.647Z,13.059999999999999
2024-03-05T08:27:43.087Z,14.24
2024-03-05T08:30:43.908Z,11.74
2024-03-05T08:33:39.174Z,11.120000000000001
2024-03-05T08:39:34.292Z,9.700000000000001
2024-03-05T08:42:31.852Z,10.719999999999999
2024-03-05T08:45:27.428Z,14.4
2024-03-05T08:48:23.976Z,10.74
2024-03-05T08:51:19.506Z,9.2
2024-03-05T08:54:17.818Z,11.14
2024-03-05T08:57:14.562Z,13.48
2024-03-05T09:00:28.214Z,10.02
2024-03-05T09:03:29.076Z,12.3
2024-03-05T09:06:24.246Z,12.38
2024-03-05T09:09:22.768Z,9.98
2024-03-05T09:12:19.375Z,13.060000000000002
2024-03-05T09:15:16.919Z,12.020000000000001
2024-03-05T09:18:15.183Z,8.36
2024-03-05T09:21:13.074Z,9.440000000000001
2024-03-05T09:24:08.597Z,9.14
2024-03-05T09:27:04.173Z,12.299999999999999
2024-03-05T09:30:01.742Z,10.440000000000001
2024-03-05T09:32:59.296Z,11.84
2024-03-05T09:35:58.834Z,17.02
2024-03-05T09:38:56.382Z,13.559999999999999
2024-03-05T09:41:53.933Z,14.52
2024-03-05T09:48:10.120Z,11.32
2024-03-05T09:51:11.245Z,10.72
2024-03-05T09:54:12.133Z,11.84
2024-03-05T09:57:09.654Z,11.58
2024-03-05T10:00:16.431Z,12.76
2024-03-05T10:03:11.776Z,13.720000000000002
2024-03-05T10:06:12.329Z,13.280000000000001
2024-03-05T10:09:10.864Z,12.14
2024-03-05T10:12:14.408Z,11.6
2024-03-05T10:15:12.961Z,11.58
2024-03-05T10:18:14.523Z,13.580000000000002
2024-03-05T10:21:20.201Z,10.139999999999999
2024-03-05T10:24:28.581Z,11.96
2024-03-05T10:27:29.119Z,9.040000000000001
2024-03-05T10:30:25.675Z,13.940000000000001
2024-03-05T10:33:28.223Z,13.24
2024-03-05T10:36:27.764Z,11.4
2024-03-05T10:39:29.183Z,13.26
2024-03-05T10:42:33.845Z,13.76
2024-03-05T10:45:33.433Z,13.5
2024-03-05T10:48:29.968Z,10.8
2024-03-05T10:51:31.513Z,13.86
2024-03-05T10:54:33.582Z,10.780000000000001
2024-03-05T10:57:30.597Z,11
2024-03-05T11:00:27.154Z,10.1
2024-03-05T11:03:29.714Z,10.879999999999999
2024-03-05T11:06:27.277Z,12.479999999999999
2024-03-05T11:09:24.845Z,8.540000000000001
2024-03-05T11:12:24.378Z,11.020000000000001
2024-03-05T11:15:22.966Z,9.079999999999998
2024-03-05T11:18:30.010Z,13.38
2024-03-05T11:21:27.370Z,10.66
2024-03-05T11:24:32.572Z,10.42
2024-03-05T11:27:35.080Z,10.04
2024-03-05T11:30:42.628Z,9.24
2024-03-05T11:33:41.195Z,10.26
2024-03-05T11:37:01.670Z,9.7
2024-03-05T11:40:11.344Z,10.86
2024-03-05T11:43:07.769Z,10.8
2024-03-05T11:46:35.269Z,11.66
2024-03-05T11:49:35.833Z,13.5
2024-03-05T11:52:32.384Z,10.3
2024-03-05T11:55:33.014Z,13.66
2024-03-05T11:58:29.482Z,10.239999999999998
2024-03-05T12:01:33.097Z,11.319999999999999
2024-03-05T12:04:32.571Z,12.819999999999999
2024-03-05T12:07:30.136Z,9.68
2024-03-05T12:10:32.886Z,10.4
2024-03-05T12:13:33.227Z,10.479999999999999
2024-03-05T12:16:39.831Z,16.7
2024-03-05T12:19:41.477Z,9.58
2024-03-05T12:22:49.900Z,9.3
2024-03-05T12:25:48.463Z,10.64
2024-03-05T12:28:43.971Z,9.8
2024-03-05T12:31:42.464Z,11.3
2024-03-05T12:34:41.052Z,11.58
2024-03-05T12:37:40.592Z,9.540000000000001
2024-03-05T12:40:38.211Z,10.600000000000001
2024-03-05T12:43:50.717Z,12.52
2024-03-05T12:46:51.295Z,12.139999999999997
2024-03-05T12:49:48.902Z,11.8
2024-03-05T12:53:00.316Z,12.319999999999999
2024-03-05T12:56:02.008Z,9.34
2024-03-05T12:58:59.454Z,10.120000000000001
2024-03-05T13:01:57.140Z,10.52
2024-03-05T13:04:57.020Z,7.5600000000000005
2024-03-05T13:07:59.817Z,10.22
2024-03-05T13:10:56.752Z,7.44
2024-03-05T13:13:57.197Z,8.9
2024-03-05T13:16:53.883Z,8.66
2024-03-05T13:19:49.307Z,7.459999999999999
2024-03-05T13:22:45.886Z,9.66
2024-03-05T13:25:48.361Z,9.48
2024-03-05T13:28:47.978Z,11.3
2024-03-05T13:31:45.512Z,10.819999999999999
2024-03-05T13:34:45.158Z,12.719999999999999
2024-03-05T13:37:48.815Z,10.379999999999999
2024-03-05T13:40:46.160Z,11.579999999999998
2024-03-05T13:43:45.768Z,12.7
2024-03-05T13:46:44.253Z,10.879999999999999
2024-03-05T13:49:41.837Z,9.64
2024-03-05T13:52:43.790Z,9.919999999999998
2024-03-05T13:55:42.989Z,11.879999999999999
2024-03-05T13:58:38.472Z,11.52
2024-03-05T14:01:36.102Z,11.28
2024-03-05T14:04:37.134Z,10.88
2024-03-05T14:07:37.136Z,7.4799999999999995
2024-03-05T14:10:34.689Z,11.26
2024-03-05T14:13:39.227Z,11.1
2024-03-05T14:16:39.829Z,12.059999999999999
2024-03-05T14:19:37.362Z,11.9
2024-03-05T14:22:33.660Z,12.099999999999998
2024-03-05T14:25:30.805Z,21.459999999999997
2024-03-05T14:28:27.009Z,14.180000000000001
2024-03-05T14:31:24.315Z,10.239999999999998
2024-03-05T14:34:22.175Z,15.620000000000001
2024-03-05T14:37:19.655Z,9.86
2024-03-05T14:40:19.233Z,11.8
2024-03-05T14:43:17.800Z,14.819999999999999
2024-03-05T14:46:14.278Z,8.8
2024-03-05T14:49:11.895Z,11.5
2024-03-05T14:52:07.435Z,12.58
2024-03-05T14:58:49.829Z,23.6
2024-03-05T15:04:46.950Z,19.1
2024-03-05T15:07:44.267Z,15.26
2024-03-05T15:10:44.863Z,13.059999999999999
2024-03-05T15:13:40.234Z,11.7
2024-03-05T15:16:38.784Z,10.879999999999999
2024-03-05T15:19:35.348Z,11.34
2024-03-05T15:22:30.896Z,12.839999999999998
2024-03-05T15:25:31.530Z,14
2024-03-05T15:28:30.062Z,10.079999999999998
2024-03-05T15:31:25.564Z,54.779999999999994
2024-03-05T15:34:22.199Z,58.220000000000006
2024-03-05T15:37:23.672Z,21.6
2024-03-05T15:40:21.863Z,13.960000000000003
2024-03-05T15:43:19.776Z,25.8
2024-03-05T15:46:16.340Z,33.019999999999996
2024-03-05T15:49:15.889Z,27
2024-03-05T15:52:14.474Z,36.94
2024-03-05T15:55:11.995Z,50.42
2024-03-05T15:58:41.673Z,42.5
2024-03-05T16:05:13.681Z,42.92
2024-03-05T16:13:07.116Z,26.919999999999998
2024-03-05T16:16:10.635Z,23.8
2024-03-05T16:19:14.124Z,21.76
2024-03-05T16:22:13.722Z,18.02
2024-03-05T16:25:18.538Z,18.86
2024-03-05T16:28:22.815Z,15.64
2024-03-05T16:31:22.309Z,26.2
2024-03-05T16:34:25.894Z,24.86
2024-03-05T16:37:29.292Z,39.68
2024-03-05T16:40:26.968Z,23.7
2024-03-05T16:43:24.518Z,12.52
2024-03-05T16:46:21.083Z,16.1
2024-03-05T16:49:16.678Z,18.139999999999997
2024-03-05T16:52:17.848Z,11.040000000000001
2024-03-05T16:55:23.778Z,12.320000000000002
2024-03-05T16:58:29.535Z,15.559999999999999
2024-03-05T17:01:29.885Z,13.64
2024-03-05T17:04:29.363Z,15.040000000000001
2024-03-05T17:07:33.943Z,15.9
2024-03-05T17:10:35.377Z,16.380000000000003
2024-03-05T17:13:43.034Z,18.360000000000003
2024-03-05T17:19:49.181Z,26.76
2024-03-05T17:22:48.669Z,18.36
2024-03-05T17:25:46.204Z,17.02
2024-03-05T17:28:48.776Z,35.160000000000004
2024-03-05T17:34:58.870Z,81.1
2024-03-05T17:38:02.435Z,153.14000000000001
2024-03-05T17:41:00.842Z,253.66000000000003
2024-03-05T17:43:58.437Z,173
2024-03-05T17:46:57.032Z,160.18
2024-03-05T17:49:58.578Z,136.9
2024-03-05T17:53:00.081Z,137.12
2024-03-05T17:56:04.564Z,135.66000000000003
2024-03-05T17:59:03.218Z,202.54000000000002
2024-03-05T18:02:04.598Z,217.78000000000003
2024-03-05T18:05:07.346Z,236.32
2024-03-05T18:08:03.957Z,145.48
2024-03-05T18:11:07.432Z,98.5
2024-03-05T18:14:15.293Z,68.76
2024-03-05T18:17:17.447Z,64.56
2024-03-05T18:20:18.027Z,92.35999999999999
2024-03-05T18:23:18.545Z,61.879999999999995
2024-03-05T18:26:22.341Z,113.67999999999999
2024-03-05T18:29:19.669Z,161.18
2024-03-05T18:32:26.189Z,118.38000000000002
2024-03-05T18:35:32.738Z,121.32000000000001
2024-03-05T18:38:39.615Z,101.94
2024-03-05T18:41:43.620Z,84.94
2024-03-05T18:44:42.323Z,156.8
2024-03-05T18:47:54.393Z,115.7
2024-03-05T18:51:07.379Z,87.88
2024-03-05T18:54:14.939Z,89.54
2024-03-05T18:57:20.214Z,85.2
2024-03-05T19:00:21.991Z,60.660000000000004
2024-03-05T19:03:26.553Z,52.06
2024-03-05T19:06:29.098Z,34.260000000000005
2024-03-05T19:09:30.645Z,28.8
2024-03-05T19:12:37.169Z,27.68
2024-03-05T19:15:37.697Z,28.060000000000002
2024-03-05T19:18:39.307Z,24.88
2024-03-05T19:21:37.794Z,32.1
2024-03-05T19:24:35.371Z,27.159999999999997
2024-03-05T19:27:41.904Z,27.540000000000003
2024-03-05T19:30:44.425Z,26.339999999999996
2024-03-05T19:33:46.481Z,26.240000000000002
2024-03-05T19:36:42.604Z,28.72
2024-03-05T19:39:45.088Z,26.100000000000005
2024-03-05T19:42:53.655Z,24.62
2024-03-05T19:45:58.944Z,21.979999999999997
2024-03-05T19:49:00.289Z,23.68
2024-03-05T19:52:02.494Z,25.119999999999997
2024-03-05T19:55:01.826Z,20.119999999999997
2024-03-05T19:58:08.583Z,24.1
2024-03-05T20:01:13.912Z,24.619999999999997
2024-03-05T20:04:16.429Z,35.28
2024-03-05T20:07:14.012Z,35.08
2024-03-05T20:10:10.523Z,33.5
2024-03-05T20:13:09.057Z,37.17999999999999
2024-03-05T20:16:15.164Z,37.58
2024-03-05T20:19:11.153Z,36.9
2024-03-05T20:22:15.889Z,33.5
2024-03-05T20:25:22.318Z,32.58
2024-03-05T20:28:18.794Z,34.96
2024-03-05T20:31:23.309Z,35.6
2024-03-05T20:34:21.922Z,43.68
2024-03-05T20:37:19.466Z,35.2
2024-03-05T20:40:17.036Z,39.08
2024-03-05T20:43:14.585Z,38.160000000000004
2024-03-05T20:46:34.094Z,31.620000000000005
2024-03-05T20:49:30.708Z,36.92
2024-03-05T20:52:27.260Z,37.1
2024-03-05T20:55:24.300Z,39.68
2024-03-05T20:58:31.297Z,35.9
2024-03-05T21:01:45.735Z,35.92
2024-03-05T21:04:53.377Z,34.160000000000004
2024-03-05T21:08:00.668Z,32.48
2024-03-05T21:11:04.238Z,32.82000000000001
2024-03-05T21:14:12.565Z,26.76
2024-03-05T21:17:12.518Z,35.44
2024-03-05T21:20:15.669Z,31.76
2024-03-05T21:23:18.666Z,27.659999999999997
2024-03-05T21:26:35.017Z,28.379999999999995
2024-03-05T21:29:33.631Z,26.74
2024-03-05T21:32:34.017Z,28.860000000000003
2024-03-05T21:35:32.817Z,31.04
2024-03-05T21:38:35.631Z,30.119999999999997
2024-03-05T21:41:30.789Z,27.4
2024-03-05T21:44:37.282Z,24.799999999999997
2024-03-05T21:47:43.902Z,26.1
2024-03-05T21:50:41.463Z,26.119999999999997
2024-03-05T21:53:38.632Z,25.639999999999997
2024-03-05T21:56:36.573Z,32
2024-03-05T21:59:35.110Z,35.14
2024-03-05T22:02:31.684Z,36.89999999999999
2024-03-05T22:05:29.247Z,38.06
2024-03-05T22:08:25.811Z,35.18
2024-03-05T22:11:22.454Z,32.76
2024-03-05T22:14:18.955Z,31.860000000000003
2024-03-05T22:17:15.482Z,35.839999999999996
2024-03-05T22:20:14.098Z,24.02
2024-03-05T22:23:13.610Z,30.1
2024-03-05T22:26:17.128Z,35.02
2024-03-05T22:29:14.690Z,31.7
2024-03-05T22:32:10.394Z,33.779999999999994
2024-03-05T22:35:11.106Z,34.52
2024-03-05T22:38:08.441Z,33.68
2024-03-05T22:41:06.031Z,30.9
2024-03-05T22:44:02.479Z,28.320000000000004
2024-03-05T22:47:00.012Z,22.639999999999997
2024-03-05T22:49:55.603Z,24.48
2024-03-05T22:52:53.251Z,21.82
2024-03-05T22:55:49.713Z,22.020000000000003
2024-03-05T22:58:46.326Z,19.6
2024-03-05T23:01:42.853Z,20.020000000000003
2024-03-05T23:04:39.427Z,23.380000000000003
2024-03-05T23:07:34.907Z,19.080000000000002
2024-03-05T23:10:31.564Z,21.119999999999997
2024-03-05T23:13:27.055Z,20.52
2024-03-05T23:16:22.608Z,22.46
2024-03-05T23:19:24.173Z,25.639999999999997
2024-03-05T23:22:20.726Z,26.419999999999998
2024-03-05T23:25:17.276Z,25.6
2024-03-05T23:28:14.854Z,20.360000000000003
2024-03-05T23:31:11.407Z,24.080000000000002
2024-03-05T23:34:07.928Z,20.419999999999998
2024-03-05T23:37:05.558Z,23.919999999999998
2024-03-05T23:40:01.097Z,22.9
2024-03-05T23:42:57.609Z,27.619999999999997
2024-03-05T23:45:55.195Z,20.7
2024-03-05T23:48:50.828Z,19.78
2024-03-05T23:51:46.317Z,22.7
2024-03-05T23:54:42.866Z,26.419999999999998
2024-03-05T23:57:38.430Z,20.94
